Time;durP1;ratioP1;P1;durP2;ratioP2;P2;SDS_P1;SDS_P2;PMS_P1;PMS_P2;Temp;Humidity;BMP_temperature;BMP_pressure;BME280_temperature;BME280_humidity;BME280_pressure;Samples;Min_cycle;Max_cycle;Signal;HPM_P1;HPM_P2
2022/01/21 00:01:08;;;;;;;17.48;2.40;;;4.30;90.70;;;;;;4984167;28;20066;-60
2022/01/21 00:03:35;;;;;;;14.50;2.50;;;4.30;90.90;;;;;;4983530;28;20902;-60
2022/01/21 00:06:06;;;;;;;10.90;1.70;;;4.60;91.00;;;;;;4982621;28;20724;-61
2022/01/21 00:08:33;;;;;;;10.65;1.60;;;4.40;90.90;;;;;;4982526;28;20125;-61
2022/01/21 00:11:00;;;;;;;9.98;1.95;;;4.40;90.90;;;;;;4982747;28;20054;-61
2022/01/21 00:13:34;;;;;;;14.60;1.90;;;4.30;91.00;;;;;;4983473;28;20185;-61
2022/01/21 00:16:01;;;;;;;;;;;4.30;91.00;;;;;;4984214;28;20052;-61
2022/01/21 00:18:28;;;;;;;8.52;1.40;;;4.30;91.00;;;;;;4984009;28;22320;-61
2022/01/21 00:31:54;;;;;;;14.73;1.67;;;4.10;91.40;;;;;;4983787;28;20078;-60
2022/01/21 00:34:21;;;;;;;13.77;2.17;;;4.20;91.50;;;;;;4983997;28;20052;-60
2022/01/21 00:36:48;;;;;;;15.48;2.13;;;4.10;91.50;;;;;;4983609;28;20758;-60
2022/01/21 00:39:20;;;;;;;5.95;1.30;;;4.20;91.50;;;;;;4983375;28;20461;-60
2022/01/21 00:41:57;;;;;;;7.88;1.50;;;4.10;91.60;;;;;;4983807;28;20056;-60
2022/01/21 00:44:24;;;;;;;10.93;2.88;;;4.10;91.60;;;;;;4983374;28;20576;-59
2022/01/21 00:46:51;;;;;;;10.15;2.30;;;4.10;91.60;;;;;;4982631;28;20449;-59
2022/01/21 00:49:18;;;;;;;17.90;1.83;;;4.10;91.60;;;;;;4989357;28;20061;-59
2022/01/21 00:51:45;;;;;;;9.38;1.50;;;4.00;91.60;;;;;;4989614;28;20065;-59
2022/01/21 00:54:12;;;;;;;8.35;1.67;;;4.00;91.60;;;;;;4989691;28;20054;-59
2022/01/21 00:56:40;;;;;;;11.23;1.80;;;4.00;91.60;;;;;;4989543;28;20054;-59
2022/01/21 00:59:07;;;;;;;8.30;1.45;;;4.00;91.70;;;;;;4989332;28;20058;-59
2022/01/21 01:01:34;;;;;;;10.63;1.45;;;4.00;91.70;;;;;;4989250;28;20072;-59
2022/01/21 01:04:01;;;;;;;15.40;2.17;;;4.00;91.70;;;;;;4989727;28;20555;-59
2022/01/21 01:06:28;;;;;;;8.65;1.55;;;4.00;91.70;;;;;;4989991;28;20050;-59
2022/01/21 01:08:55;;;;;;;12.32;1.65;;;4.00;91.80;;;;;;4989032;28;20046;-59
2022/01/21 01:11:30;;;;;;;12.30;1.95;;;4.00;91.80;;;;;;4989930;28;20051;-59
2022/01/21 01:22:14;;;;;;;11.07;1.80;;;4.10;92.00;;;;;;4989995;28;20133;-59
2022/01/21 01:27:41;;;;;;;13.48;2.67;;;4.00;92.30;;;;;;4988117;28;20038;-59
2022/01/21 01:30:12;;;;;;;14.60;2.25;;;4.10;92.60;;;;;;4988134;28;20050;-59
2022/01/21 01:32:40;;;;;;;8.50;1.27;;;4.20;92.90;;;;;;4989277;28;20058;-59
2022/01/21 01:35:08;;;;;;;5.35;0.80;;;4.20;93.20;;;;;;4989811;28;20125;-59
2022/01/21 01:37:51;;;;;;;4.82;0.73;;;4.10;93.00;;;;;;4990004;28;20054;-59
2022/01/21 01:40:23;;;;;;;5.43;0.60;;;4.10;92.80;;;;;;4989058;28;21255;-59
2022/01/21 01:51:04;;;;;;;2.97;0.60;;;4.00;92.70;;;;;;4987933;28;20069;-60
2022/01/21 01:53:34;;;;;;;3.50;0.50;;;3.90;92.70;;;;;;4989128;28;20050;-59
2022/01/21 01:56:04;;;;;;;5.78;0.73;;;4.00;92.70;;;;;;4988545;28;20050;-59
2022/01/21 01:58:35;;;;;;;6.20;0.77;;;4.00;92.80;;;;;;4989483;28;20066;-60
2022/01/21 02:01:04;;;;;;;5.43;0.90;;;3.90;92.80;;;;;;4984554;28;20150;-59
2022/01/21 02:03:32;;;;;;;4.00;0.68;;;4.00;93.00;;;;;;4985890;28;20054;-59
2022/01/21 02:05:59;;;;;;;10.07;1.17;;;4.10;93.10;;;;;;4984899;28;20061;-59
2022/01/21 02:08:26;;;;;;;6.13;0.82;;;4.10;93.20;;;;;;4985199;28;20054;-59
2022/01/21 02:10:53;;;;;;;8.85;1.40;;;4.20;93.30;;;;;;4985808;28;20062;-59
2022/01/21 02:13:23;;;;;;;8.23;1.23;;;4.20;93.40;;;;;;4986227;28;20072;-59
2022/01/21 02:16:10;;;;;;;8.48;1.38;;;4.10;93.60;;;;;;4983901;28;20050;-59
2022/01/21 02:21:33;;;;;;;8.05;1.50;;;4.00;93.80;;;;;;4985571;28;20046;-59
2022/01/21 02:24:02;;;;;;;9.85;1.33;;;4.00;94.00;;;;;;4986008;28;20062;-60
2022/01/21 02:26:30;;;;;;;6.95;1.00;;;4.00;94.20;;;;;;4984497;28;20057;-59
2022/01/21 02:28:59;;;;;;;8.20;1.50;;;4.00;94.30;;;;;;4985637;28;20201;-59
2022/01/21 02:31:26;;;;;;;10.05;1.10;;;4.00;94.40;;;;;;4983918;28;20054;-59
2022/01/21 02:33:53;;;;;;;6.82;1.00;;;4.00;94.30;;;;;;4985713;28;20066;-59
2022/01/21 02:36:20;;;;;;;10.05;1.13;;;4.00;94.40;;;;;;4985331;28;20060;-59
2022/01/21 02:38:48;;;;;;;8.95;1.25;;;4.00;94.40;;;;;;4985718;28;20927;-59
2022/01/21 02:41:15;;;;;;;5.13;1.00;;;4.10;94.60;;;;;;4985716;28;20058;-59
2022/01/21 02:43:42;;;;;;;8.15;1.23;;;4.10;94.50;;;;;;4983874;28;20054;-59
2022/01/21 02:46:10;;;;;;;8.10;1.30;;;4.10;94.50;;;;;;4984148;28;20058;-59
2022/01/21 02:48:38;;;;;;;9.43;0.95;;;4.10;94.60;;;;;;4984029;28;20062;-59
2022/01/21 02:51:07;;;;;;;3.78;0.70;;;4.10;94.60;;;;;;4983065;28;20065;-59
2022/01/21 02:56:23;;;;;;;3.75;0.30;;;4.00;94.30;;;;;;4984160;28;20092;-59
2022/01/21 02:58:50;;;;;;;2.53;0.30;;;4.00;94.40;;;;;;4985514;28;20050;-59
2022/01/21 03:01:18;;;;;;;5.38;0.73;;;4.10;94.20;;;;;;4984664;28;20058;-59
2022/01/21 03:03:46;;;;;;;3.05;0.40;;;4.10;94.20;;;;;;4984504;28;20058;-59
2022/01/21 03:06:15;;;;;;;7.18;0.73;;;4.10;94.10;;;;;;4984152;28;20046;-59
2022/01/21 03:08:43;;;;;;;8.10;0.80;;;4.10;94.00;;;;;;4984359;28;20054;-59
2022/01/21 03:11:12;;;;;;;4.53;1.25;;;4.00;94.00;;;;;;4984604;28;20057;-59
2022/01/21 03:13:41;;;;;;;4.82;0.70;;;4.00;93.90;;;;;;4984140;28;20490;-59
2022/01/21 03:16:07;;;;;;;8.05;0.95;;;3.90;93.90;;;;;;4983873;28;20046;-59
2022/01/21 03:18:35;;;;;;;5.82;0.60;;;3.80;93.90;;;;;;4984186;28;20517;-59
2022/01/21 03:21:01;;;;;;;6.03;1.05;;;3.80;94.00;;;;;;4983889;28;20058;-59
2022/01/21 03:23:29;;;;;;;6.68;0.55;;;3.70;94.00;;;;;;4984922;28;20050;-59
2022/01/21 03:25:56;;;;;;;4.38;0.57;;;3.70;94.00;;;;;;4983385;28;20046;-59
2022/01/21 03:28:23;;;;;;;5.70;0.70;;;3.70;94.10;;;;;;4984480;28;20061;-59
2022/01/21 03:30:55;;;;;;;2.65;0.50;;;3.70;94.10;;;;;;4985080;28;20061;-59
2022/01/21 03:33:23;;;;;;;8.88;0.98;;;3.70;94.10;;;;;;4984489;28;20058;-59
2022/01/21 03:35:51;;;;;;;3.63;0.70;;;3.70;94.10;;;;;;4984770;28;20422;-59
2022/01/21 03:38:18;;;;;;;5.28;0.73;;;3.70;94.10;;;;;;4985303;28;20141;-59
2022/01/21 03:40:45;;;;;;;4.88;0.60;;;3.70;94.00;;;;;;4984250;28;20054;-59
2022/01/21 03:43:12;;;;;;;6.05;1.02;;;3.60;94.00;;;;;;4983349;28;20057;-59
2022/01/21 03:45:39;;;;;;;9.63;1.05;;;3.60;94.00;;;;;;4982031;28;20050;-59
2022/01/21 03:48:08;;;;;;;8.48;1.10;;;3.50;94.00;;;;;;4981742;28;20050;-59
2022/01/21 03:50:34;;;;;;;5.68;1.17;;;3.50;94.00;;;;;;4982865;28;20088;-59
2022/01/21 03:53:03;;;;;;;8.18;0.90;;;3.50;94.10;;;;;;4984495;28;20050;-59
2022/01/21 03:55:31;;;;;;;12.60;1.45;;;3.40;94.10;;;;;;4984436;28;20050;-59
2022/01/21 03:57:59;;;;;;;5.63;1.17;;;3.40;94.10;;;;;;4984262;28;20058;-59
2022/01/21 04:00:27;;;;;;;11.20;1.52;;;3.40;94.10;;;;;;4984017;28;20406;-59
2022/01/21 04:02:55;;;;;;;7.88;1.10;;;3.40;94.10;;;;;;4984245;28;20050;-60
2022/01/21 04:05:23;;;;;;;8.93;1.30;;;3.40;94.20;;;;;;4983480;28;20141;-59
2022/01/21 04:07:50;;;;;;;11.77;1.50;;;3.30;94.20;;;;;;4982487;28;20065;-59
2022/01/21 04:10:17;;;;;;;8.40;1.10;;;3.30;94.30;;;;;;4982627;28;20054;-60
2022/01/21 04:12:44;;;;;;;10.80;1.40;;;3.30;94.30;;;;;;4981614;28;20062;-59
2022/01/21 04:15:12;;;;;;;8.93;1.17;;;3.20;94.20;;;;;;4983641;28;20630;-60
2022/01/21 04:17:57;;;;;;;6.65;1.00;;;3.20;94.20;;;;;;4983670;28;20061;-59
2022/01/21 04:20:25;;;;;;;7.72;1.15;;;3.10;94.30;;;;;;4983487;28;20054;-59
2022/01/21 04:22:53;;;;;;;9.70;1.25;;;3.10;94.30;;;;;;4981933;28;20061;-59
2022/01/21 04:25:20;;;;;;;7.45;1.33;;;3.10;94.30;;;;;;4983564;28;20059;-59
2022/01/21 04:27:47;;;;;;;9.73;1.70;;;3.00;94.30;;;;;;4983561;28;20054;-59
2022/01/21 04:30:14;;;;;;;10.65;1.48;;;3.00;94.40;;;;;;4983499;28;20069;-59
2022/01/21 04:32:41;;;;;;;10.85;1.52;;;3.00;94.40;;;;;;4983303;28;20049;-59
2022/01/21 04:35:09;;;;;;;9.93;1.58;;;3.00;94.50;;;;;;4982567;28;20046;-59
2022/01/21 04:37:43;;;;;;;13.18;1.33;;;3.00;94.50;;;;;;4982802;28;20058;-59
2022/01/21 04:40:14;;;;;;;9.60;1.40;;;3.00;94.50;;;;;;4982825;28;20054;-59
2022/01/21 04:48:10;;;;;;;8.80;1.42;;;3.00;94.60;;;;;;4984023;28;21085;-59
2022/01/21 04:50:42;;;;;;;5.78;1.20;;;3.10;94.60;;;;;;4983366;28;20516;-59
2022/01/21 04:53:10;;;;;;;8.90;1.45;;;3.10;94.60;;;;;;4982031;28;20555;-59
2022/01/21 04:55:37;;;;;;;6.50;1.13;;;3.10;94.70;;;;;;4982186;28;20058;-59
2022/01/21 04:58:04;;;;;;;7.03;0.90;;;3.10;94.70;;;;;;4982420;28;20060;-59
2022/01/21 05:00:31;;;;;;;10.05;1.30;;;3.20;94.80;;;;;;4982192;28;20055;-59
2022/01/21 05:02:58;;;;;;;5.78;0.98;;;3.20;94.80;;;;;;4982078;28;20050;-59
2022/01/21 05:05:26;;;;;;;3.47;0.70;;;3.20;94.80;;;;;;4981772;28;20059;-59
2022/01/21 05:07:54;;;;;;;5.63;1.05;;;3.20;94.90;;;;;;4982020;28;20076;-60
2022/01/21 05:10:24;;;;;;;4.75;0.90;;;3.30;94.90;;;;;;4981647;28;20442;-59
2022/01/21 05:12:51;;;;;;;6.05;1.27;;;3.30;95.00;;;;;;4983532;28;22377;-59
2022/01/21 05:15:25;;;;;;;4.25;0.90;;;3.30;95.00;;;;;;4982584;28;20050;-59
2022/01/21 05:17:51;;;;;;;5.93;0.93;;;3.40;95.00;;;;;;4983005;28;20066;-59
2022/01/21 05:20:18;;;;;;;9.68;0.95;;;3.40;95.00;;;;;;4983024;28;20511;-59
2022/01/21 05:22:47;;;;;;;10.05;1.48;;;3.50;95.20;;;;;;4982787;28;22163;-59
2022/01/21 05:25:18;;;;;;;11.70;2.10;;;3.60;95.00;;;;;;4982282;28;20054;-59
2022/01/21 05:27:53;;;;;;;10.77;1.38;;;3.60;95.00;;;;;;4981388;28;20058;-59
2022/01/21 05:30:20;;;;;;;8.30;2.47;;;3.60;94.90;;;;;;4982848;28;20105;-59
2022/01/21 05:32:47;;;;;;;10.45;1.33;;;3.60;94.90;;;;;;4982232;28;20102;-59
2022/01/21 05:35:14;;;;;;;8.88;1.20;;;3.50;94.90;;;;;;4983745;28;20057;-59
2022/01/21 05:37:41;;;;;;;7.75;1.02;;;3.50;94.90;;;;;;4985563;28;20061;-59
2022/01/21 05:40:13;;;;;;;7.90;1.13;;;3.50;94.90;;;;;;4985962;28;20054;-59
2022/01/21 05:42:40;;;;;;;5.75;1.25;;;3.40;94.90;;;;;;4985686;28;20058;-59
2022/01/21 05:47:55;;;;;;;13.77;1.40;;;3.40;94.90;;;;;;4985158;28;20042;-59
2022/01/21 05:50:22;;;;;;;7.28;1.10;;;3.40;95.00;;;;;;4985598;28;20127;-59
2022/01/21 05:52:49;;;;;;;8.38;1.85;;;3.40;95.10;;;;;;4985903;28;20054;-59
2022/01/21 05:55:16;;;;;;;15.27;1.60;;;3.40;95.20;;;;;;4985138;28;20051;-59
2022/01/21 05:57:44;;;;;;;5.82;1.15;;;3.40;95.30;;;;;;4985749;28;20437;-59
2022/01/21 06:00:13;;;;;;;5.80;1.15;;;3.50;95.40;;;;;;4983968;28;20051;-59
2022/01/21 06:02:40;;;;;;;7.85;1.20;;;3.60;95.50;;;;;;4984619;28;20054;-59
2022/01/21 06:05:08;;;;;;;9.25;1.50;;;3.60;95.40;;;;;;4985335;28;20058;-59
2022/01/21 06:07:35;;;;;;;9.18;1.05;;;3.70;95.30;;;;;;4985565;28;20046;-59
2022/01/21 06:10:02;;;;;;;6.22;1.65;;;3.70;95.30;;;;;;4985498;28;20058;-59
2022/01/21 06:12:29;;;;;;;7.07;1.33;;;3.70;95.30;;;;;;4984819;28;20935;-59
2022/01/21 06:14:56;;;;;;;14.27;1.55;;;3.70;95.30;;;;;;4985458;28;20060;-59
2022/01/21 06:17:25;;;;;;;8.40;1.30;;;3.70;95.20;;;;;;4985110;28;20058;-59
2022/01/21 06:19:52;;;;;;;7.45;1.65;;;3.70;95.20;;;;;;4985403;28;20054;-60
2022/01/21 06:22:19;;;;;;;8.43;1.73;;;3.70;95.30;;;;;;4983228;28;20052;-59
2022/01/21 06:24:46;;;;;;;13.55;1.45;;;3.70;95.30;;;;;;4983192;28;20161;-59
2022/01/21 06:27:13;;;;;;;12.20;1.60;;;3.70;95.20;;;;;;4984178;28;20194;-59
2022/01/21 06:29:40;;;;;;;10.82;1.20;;;3.70;95.20;;;;;;4982949;28;22321;-59
2022/01/21 06:32:07;;;;;;;10.45;1.80;;;3.60;95.20;;;;;;4984384;28;20050;-60
2022/01/21 06:34:36;;;;;;;7.15;1.50;;;3.60;95.10;;;;;;4985798;28;20054;-59
2022/01/21 06:37:03;;;;;;;8.00;1.42;;;3.60;95.00;;;;;;4985343;28;20797;-59
2022/01/21 06:39:29;;;;;;;15.15;3.70;;;3.50;95.00;;;;;;4984518;28;20055;-59
2022/01/21 06:41:56;;;;;;;22.23;5.93;;;3.50;95.00;;;;;;4984630;28;20784;-60
2022/01/21 06:44:24;;;;;;;15.73;4.05;;;3.50;95.20;;;;;;4984907;28;20057;-60
2022/01/21 06:46:50;;;;;;;16.77;3.67;;;3.40;94.90;;;;;;4983970;28;20061;-60
2022/01/21 06:49:17;;;;;;;10.73;3.33;;;3.40;94.90;;;;;;4984118;28;20050;-59
2022/01/21 06:51:45;;;;;;;12.30;2.28;;;3.40;94.90;;;;;;4983430;28;20109;-59
2022/01/21 06:54:13;;;;;;;10.13;1.77;;;3.40;94.90;;;;;;4983901;28;20054;-59
2022/01/21 06:56:40;;;;;;;8.73;1.70;;;3.40;94.90;;;;;;4983508;28;20178;-59
2022/01/21 06:59:07;;;;;;;7.28;1.70;;;3.40;94.90;;;;;;4984660;28;20047;-59
2022/01/21 07:01:34;;;;;;;5.40;1.00;;;3.30;94.80;;;;;;4983405;28;20056;-60
2022/01/21 07:04:01;;;;;;;13.32;2.15;;;3.30;94.80;;;;;;4983617;28;20055;-60
2022/01/21 07:06:28;;;;;;;7.78;1.10;;;3.20;94.70;;;;;;4984107;28;20880;-60
2022/01/21 07:08:56;;;;;;;9.55;1.70;;;3.10;94.70;;;;;;4983474;28;20061;-60
2022/01/21 07:11:23;;;;;;;9.18;1.73;;;3.10;94.80;;;;;;4984740;28;22366;-60
2022/01/21 07:13:50;;;;;;;13.65;1.85;;;3.10;94.90;;;;;;4983587;28;20069;-60
2022/01/21 07:16:17;;;;;;;8.70;2.00;;;3.10;95.00;;;;;;4983724;28;20742;-61
2022/01/21 07:18:44;;;;;;;9.05;1.90;;;3.20;95.00;;;;;;4983745;28;20050;-60
2022/01/21 07:21:11;;;;;;;14.98;1.90;;;3.20;95.10;;;;;;4981298;28;20058;-60
2022/01/21 07:23:37;;;;;;;11.75;1.98;;;3.30;95.10;;;;;;4983157;28;20056;-60
2022/01/21 07:26:06;;;;;;;9.80;1.90;;;3.30;95.10;;;;;;4983347;28;20104;-60
2022/01/21 07:28:33;;;;;;;15.15;1.88;;;3.20;95.40;;;;;;4983837;28;21160;-60
2022/01/21 07:31:00;;;;;;;14.75;2.22;;;3.30;95.20;;;;;;4983326;28;20061;-60
2022/01/21 07:33:27;;;;;;;14.68;1.98;;;3.40;95.30;;;;;;4983774;28;20046;-60
2022/01/21 07:35:54;;;;;;;10.10;1.92;;;3.50;95.30;;;;;;4982814;28;20053;-60
2022/01/21 07:38:21;;;;;;;18.90;2.25;;;3.50;95.20;;;;;;4983167;28;20058;-60
2022/01/21 07:40:48;;;;;;;9.43;1.80;;;3.50;95.20;;;;;;4984095;28;20042;-60
2022/01/21 07:43:16;;;;;;;12.63;1.65;;;3.60;95.20;;;;;;4983001;28;20062;-61
2022/01/21 07:45:43;;;;;;;13.52;1.83;;;3.60;95.20;;;;;;4983831;28;20049;-61
2022/01/21 07:48:10;;;;;;;9.27;1.75;;;3.60;95.30;;;;;;4984290;28;20535;-60
2022/01/21 07:50:39;;;;;;;9.95;1.98;;;3.70;95.30;;;;;;4983043;28;20481;-60
2022/01/21 07:53:06;;;;;;;17.02;2.85;;;3.70;95.40;;;;;;4983303;28;20065;-61
2022/01/21 07:55:34;;;;;;;9.00;1.88;;;3.80;95.40;;;;;;4984413;28;20050;-61
2022/01/21 07:58:01;;;;;;;12.30;1.90;;;3.80;95.30;;;;;;4983272;28;20052;-61
2022/01/21 08:00:30;;;;;;;12.73;1.75;;;3.80;95.30;;;;;;4982999;28;20062;-61
2022/01/21 08:02:57;;;;;;;12.18;2.65;;;3.80;95.20;;;;;;4983402;28;20050;-61
2022/01/21 08:05:24;;;;;;;14.07;2.05;;;3.90;95.20;;;;;;4983065;28;20050;-61
2022/01/21 08:07:50;;;;;;;10.13;1.70;;;3.90;95.30;;;;;;4981113;28;20050;-61
2022/01/21 08:10:17;;;;;;;15.55;2.53;;;3.90;95.30;;;;;;4983401;28;20050;-61
2022/01/21 08:12:44;;;;;;;13.73;1.95;;;3.90;95.20;;;;;;4982799;28;20141;-61
2022/01/21 08:15:11;;;;;;;10.82;1.77;;;3.90;95.20;;;;;;4983192;28;20136;-61
2022/01/21 08:17:39;;;;;;;18.10;2.28;;;3.80;95.20;;;;;;4983876;28;20076;-60
2022/01/21 08:20:07;;;;;;;11.65;1.50;;;3.80;95.30;;;;;;4983540;28;20054;-61
2022/01/21 08:22:34;;;;;;;15.48;2.78;;;3.80;95.30;;;;;;4982138;28;20050;-61
2022/01/21 08:25:02;;;;;;;10.35;1.60;;;3.80;95.40;;;;;;4983564;28;20054;-61
2022/01/21 08:27:28;;;;;;;9.90;2.00;;;3.90;95.60;;;;;;4982615;28;20054;-61
2022/01/21 08:29:56;;;;;;;16.23;1.77;;;3.90;95.70;;;;;;4984059;28;20062;-61
2022/01/21 08:32:23;;;;;;;17.85;2.20;;;4.00;96.00;;;;;;4982909;28;20054;-61
2022/01/21 08:34:52;;;;;;;17.63;3.42;;;4.20;96.00;;;;;;4983779;28;20080;-61
2022/01/21 08:37:19;;;;;;;22.30;2.50;;;4.30;96.00;;;;;;4982793;28;20047;-61
2022/01/21 08:39:46;;;;;;;14.40;2.53;;;4.50;96.00;;;;;;4983824;28;20069;-61
2022/01/21 08:42:13;;;;;;;16.23;3.65;;;4.70;95.90;;;;;;4981957;28;20089;-61
2022/01/21 08:44:40;;;;;;;18.25;2.40;;;4.90;95.80;;;;;;4983176;28;20058;-61
2022/01/21 08:47:07;;;;;;;12.88;2.35;;;5.10;95.80;;;;;;4980793;28;20190;-61
2022/01/21 08:49:35;;;;;;;18.25;2.85;;;5.20;95.50;;;;;;4983072;28;20060;-61
2022/01/21 08:52:04;;;;;;;17.48;2.97;;;5.30;95.20;;;;;;4982639;28;20062;-61
2022/01/21 08:54:30;;;;;;;14.10;2.65;;;5.40;95.00;;;;;;4983049;28;20636;-61
2022/01/21 08:56:58;;;;;;;16.48;2.42;;;5.40;94.90;;;;;;4983224;28;20054;-61
2022/01/21 08:59:26;;;;;;;17.60;2.55;;;5.40;94.90;;;;;;4982224;28;22443;-61
2022/01/21 09:01:54;;;;;;;13.73;2.20;;;5.40;94.80;;;;;;4981866;28;22259;-62
2022/01/21 09:04:21;;;;;;;11.38;2.58;;;5.40;94.80;;;;;;4982718;28;20058;-61
2022/01/21 09:06:48;;;;;;;24.17;3.55;;;5.30;94.80;;;;;;4984182;28;20051;-61
2022/01/21 09:09:16;;;;;;;13.98;2.42;;;5.30;94.80;;;;;;4984143;28;20205;-61
2022/01/21 09:11:43;;;;;;;25.00;2.80;;;5.30;94.80;;;;;;4984848;28;20046;-61
2022/01/21 09:14:10;;;;;;;17.30;2.72;;;5.30;94.80;;;;;;4985145;28;20109;-61
2022/01/21 09:16:38;;;;;;;12.82;2.28;;;5.20;94.90;;;;;;4985717;28;20054;-61
2022/01/21 09:19:06;;;;;;;16.95;2.60;;;5.20;95.00;;;;;;4986366;28;20054;-61
2022/01/21 09:21:34;;;;;;;17.73;2.88;;;5.30;95.10;;;;;;4985764;28;20061;-61
2022/01/21 09:24:01;;;;;;;26.10;4.97;;;5.20;95.20;;;;;;4986173;28;20058;-61
2022/01/21 09:26:30;;;;;;;22.42;4.03;;;5.20;95.40;;;;;;4986117;28;21211;-61
2022/01/21 09:28:57;;;;;;;18.63;3.95;;;5.30;95.60;;;;;;4986395;28;20173;-61
2022/01/21 09:31:25;;;;;;;15.27;2.88;;;5.40;95.70;;;;;;4986318;28;20047;-61
2022/01/21 09:33:52;;;;;;;20.92;2.90;;;5.50;95.60;;;;;;4985056;28;20050;-61
2022/01/21 09:36:20;;;;;;;26.77;5.90;;;5.50;95.50;;;;;;4986114;28;20061;-61
2022/01/21 09:38:49;;;;;;;44.53;17.42;;;5.60;95.60;;;;;;4985572;28;20126;-60
2022/01/21 09:41:17;;;;;;;55.78;20.83;;;5.60;95.70;;;;;;4983359;28;20095;-61
2022/01/21 09:43:48;;;;;;;56.60;18.27;;;5.60;95.70;;;;;;4982751;28;20055;-60
2022/01/21 09:46:16;;;;;;;36.30;10.93;;;5.60;95.80;;;;;;4982369;28;20133;-60
2022/01/21 09:48:53;;;;;;;19.60;6.13;;;5.60;96.10;;;;;;4982429;28;20065;-61
2022/01/21 09:51:20;;;;;;;21.58;3.45;;;5.60;96.10;;;;;;4983248;28;20974;-60
2022/01/21 09:53:48;;;;;;;10.55;2.47;;;5.70;96.30;;;;;;4982463;28;20054;-60
2022/01/21 09:56:16;;;;;;;17.00;2.72;;;6.00;96.50;;;;;;4984296;28;20054;-61
2022/01/21 09:58:45;;;;;;;15.10;2.88;;;5.70;96.40;;;;;;4984000;28;20144;-60
2022/01/21 10:01:14;;;;;;;13.27;2.10;;;5.70;96.70;;;;;;4983044;28;20144;-60
2022/01/21 10:03:44;;;;;;;12.38;2.83;;;5.70;96.80;;;;;;4983541;28;20882;-60
2022/01/21 10:06:12;;;;;;;16.63;3.13;;;5.80;97.20;;;;;;4983392;28;22276;-61
2022/01/21 10:08:41;;;;;;;14.23;2.33;;;5.80;97.30;;;;;;4983412;28;20059;-60
2022/01/21 10:11:09;;;;;;;19.58;2.58;;;5.90;97.50;;;;;;4983283;28;20141;-60
2022/01/21 10:13:36;;;;;;;11.30;2.17;;;6.00;97.60;;;;;;4984983;28;20050;-60
2022/01/21 10:16:04;;;;;;;20.08;2.25;;;6.10;97.60;;;;;;4984574;28;20706;-60
2022/01/21 10:18:51;;;;;;;14.15;3.67;;;6.30;97.80;;;;;;4984901;28;20050;-60
2022/01/21 10:21:18;;;;;;;14.27;2.78;;;6.50;97.90;;;;;;4982824;28;20061;-60
2022/01/21 10:23:46;;;;;;;16.83;2.42;;;6.60;97.90;;;;;;4984179;28;20062;-60
2022/01/21 10:26:14;;;;;;;14.55;2.15;;;6.70;97.80;;;;;;4983640;28;20074;-61
2022/01/21 10:28:43;;;;;;;11.27;1.77;;;6.80;97.80;;;;;;4983370;28;20060;-61
2022/01/21 10:31:15;;;;;;;12.48;1.80;;;6.80;97.80;;;;;;4983287;28;20630;-61
2022/01/21 10:33:46;;;;;;;18.10;3.03;;;6.80;97.80;;;;;;4983498;28;20867;-60
2022/01/21 10:36:23;;;;;;;26.25;5.22;;;6.80;97.70;;;;;;4984214;28;20508;-61
2022/01/21 10:38:52;;;;;;;19.08;5.47;;;6.80;97.80;;;;;;4982243;28;20058;-61
2022/01/21 10:41:22;;;;;;;23.38;5.78;;;6.80;97.80;;;;;;4985125;28;20058;-60
2022/01/21 10:44:09;;;;;;;15.52;3.30;;;6.80;97.90;;;;;;4985347;28;20054;-61
2022/01/21 10:46:37;;;;;;;17.90;2.63;;;6.80;98.00;;;;;;4985009;28;21091;-61
2022/01/21 10:49:07;;;;;;;21.88;3.25;;;6.90;98.10;;;;;;4984991;28;20054;-61
2022/01/21 10:51:37;;;;;;;14.23;2.20;;;6.90;98.20;;;;;;4983913;28;20065;-61
2022/01/21 10:54:16;;;;;;;18.23;2.38;;;7.00;98.20;;;;;;4984422;28;20058;-61
2022/01/21 10:57:07;;;;;;;11.32;2.60;;;7.10;98.30;;;;;;4985183;28;20065;-60
2022/01/21 10:59:49;;;;;;;24.20;3.13;;;7.20;98.20;;;;;;4984443;28;20140;-61
2022/01/21 11:02:27;;;;;;;15.48;2.50;;;7.30;98.00;;;;;;4982104;28;20051;-61
2022/01/21 11:04:57;;;;;;;21.08;2.50;;;7.20;98.00;;;;;;4984920;28;20124;-61
2022/01/21 11:07:49;;;;;;;14.00;2.65;;;7.30;98.00;;;;;;4983555;28;20061;-60
2022/01/21 11:10:39;;;;;;;16.10;2.20;;;7.30;98.10;;;;;;4982498;28;20276;-60
2022/01/21 11:13:28;;;;;;;11.38;2.00;;;7.40;98.30;;;;;;4983652;28;20046;-61
2022/01/21 11:15:57;;;;;;;13.15;2.70;;;7.50;98.60;;;;;;4981395;28;20050;-61
2022/01/21 11:18:25;;;;;;;14.13;2.33;;;7.50;97.90;;;;;;4983276;28;20058;-61
2022/01/21 11:20:59;;;;;;;17.83;3.05;;;7.60;98.00;;;;;;4983764;28;20253;-60
2022/01/21 11:23:28;;;;;;;14.57;3.45;;;7.70;97.90;;;;;;4983211;28;20055;-60
2022/01/21 11:25:58;;;;;;;16.90;2.10;;;7.70;97.80;;;;;;4983953;28;20093;-60
2022/01/21 11:28:27;;;;;;;15.45;1.88;;;7.70;97.70;;;;;;4982582;28;20137;-60
2022/01/21 11:30:55;;;;;;;12.27;2.42;;;7.70;97.70;;;;;;4983396;28;20162;-60
2022/01/21 11:33:23;;;;;;;15.30;2.03;;;7.70;97.60;;;;;;4983635;28;20053;-60
2022/01/21 11:35:53;;;;;;;12.02;1.85;;;7.70;97.60;;;;;;4983637;28;20065;-60
2022/01/21 11:38:22;;;;;;;15.07;2.13;;;7.70;97.60;;;;;;4983738;28;20065;-60
2022/01/21 11:40:50;;;;;;;11.60;2.42;;;7.70;97.60;;;;;;4983178;28;20061;-60
2022/01/21 11:43:18;;;;;;;15.23;2.35;;;7.80;97.60;;;;;;4983440;28;20578;-60
2022/01/21 11:46:15;;;;;;;10.60;2.00;;;7.80;97.60;;;;;;4983341;28;20062;-60
2022/01/21 11:48:51;;;;;;;12.40;1.65;;;7.80;97.60;;;;;;4982257;28;20274;-60
2022/01/21 11:51:22;;;;;;;12.30;1.80;;;7.70;97.70;;;;;;4982586;28;20164;-60
2022/01/21 11:53:52;;;;;;;12.98;2.35;;;7.70;97.70;;;;;;4980905;28;20137;-60
2022/01/21 11:56:38;;;;;;;14.52;2.25;;;7.70;97.60;;;;;;4982701;28;20057;-60
2022/01/21 11:59:07;;;;;;;19.92;2.80;;;7.70;97.80;;;;;;4982377;28;20739;-60
2022/01/21 12:01:36;;;;;;;13.85;2.65;;;7.70;97.80;;;;;;4983486;28;20749;-60
2022/01/21 12:04:04;;;;;;;15.32;3.50;;;7.70;97.80;;;;;;4983634;28;22102;-60
2022/01/21 12:06:33;;;;;;;10.07;1.85;;;7.60;97.90;;;;;;4980839;28;20077;-60
2022/01/21 12:09:02;;;;;;;13.15;2.20;;;7.60;97.80;;;;;;4981744;28;20100;-60
2022/01/21 12:11:35;;;;;;;9.20;2.35;;;7.60;97.80;;;;;;4982175;28;20061;-61
2022/01/21 12:14:06;;;;;;;10.90;1.47;;;7.60;97.70;;;;;;4982745;28;20131;-60
2022/01/21 12:16:49;;;;;;;14.73;2.10;;;7.70;97.70;;;;;;4982250;28;20533;-60
2022/01/21 12:19:33;;;;;;;13.18;2.42;;;7.70;97.70;;;;;;4982808;28;20062;-60
2022/01/21 12:22:13;;;;;;;13.25;1.65;;;7.70;97.70;;;;;;4983340;28;20060;-60
2022/01/21 12:24:51;;;;;;;18.05;1.85;;;7.80;97.70;;;;;;4983188;28;20053;-60
2022/01/21 12:27:18;;;;;;;9.00;1.70;;;7.80;97.70;;;;;;4982745;28;20061;-60
2022/01/21 12:29:45;;;;;;;14.13;2.00;;;7.80;97.80;;;;;;4983523;28;20137;-60
2022/01/21 12:35:14;;;;;;;14.70;2.15;;;7.80;97.60;;;;;;4982477;28;20129;-60
2022/01/21 12:41:04;;;;;;;12.30;2.67;;;7.80;97.60;;;;;;4983312;28;20046;-63
2022/01/21 12:43:38;;;;;;;11.52;2.33;;;7.80;97.60;;;;;;4982343;28;20061;-60
2022/01/21 12:46:07;;;;;;;14.82;2.40;;;7.80;97.50;;;;;;4980031;28;20061;-60
2022/01/21 12:48:35;;;;;;;14.35;2.75;;;7.70;97.50;;;;;;4982322;28;20069;-60
2022/01/21 12:51:14;;;;;;;15.32;2.65;;;7.70;97.50;;;;;;4981849;28;20750;-60
2022/01/21 12:55:55;;;;;;;17.70;3.03;;;7.70;97.50;;;;;;4982320;28;20058;-60
2022/01/21 12:56:33;;;;;;;18.17;2.80;;;7.70;97.60;;;;;;4982231;28;20734;-60
2022/01/21 12:59:00;;;;;;;19.10;2.80;;;7.70;97.60;;;;;;4983428;28;20051;-63
2022/01/21 13:01:27;;;;;;;13.70;2.20;;;7.70;97.60;;;;;;4983266;28;20054;-63
2022/01/21 13:04:00;;;;;;;12.05;2.00;;;7.70;97.60;;;;;;4983674;28;20050;-63
2022/01/21 13:06:34;;;;;;;12.13;2.17;;;7.80;97.60;;;;;;4982413;28;20050;-63
2022/01/21 13:09:06;;;;;;;24.13;2.75;;;7.70;97.60;;;;;;4982286;28;22128;-63
2022/01/21 13:11:36;;;;;;;17.45;3.08;;;7.70;97.50;;;;;;4983425;28;20605;-63
2022/01/21 13:14:23;;;;;;;17.83;2.72;;;7.70;97.50;;;;;;4982167;28;20058;-63
2022/01/21 13:16:56;;;;;;;18.95;3.22;;;7.70;97.50;;;;;;4981154;28;20857;-63
2022/01/21 13:19:23;;;;;;;18.90;2.90;;;7.70;97.50;;;;;;4982492;28;20058;-63
2022/01/21 13:21:50;;;;;;;15.43;1.98;;;7.70;97.60;;;;;;4982677;28;20065;-63
2022/01/21 13:24:26;;;;;;;18.30;2.70;;;7.70;97.60;;;;;;4982660;28;20065;-63
2022/01/21 13:26:54;;;;;;;17.67;2.67;;;7.60;97.60;;;;;;4983109;28;20054;-63
2022/01/21 13:29:30;;;;;;;21.00;3.17;;;7.70;97.70;;;;;;4982250;28;22233;-63
2022/01/21 13:31:58;;;;;;;14.25;3.28;;;7.70;97.70;;;;;;4982204;28;20054;-63
2022/01/21 13:34:28;;;;;;;21.23;2.88;;;7.70;97.70;;;;;;4981830;28;20046;-63
2022/01/21 13:36:57;;;;;;;14.00;2.53;;;7.70;97.70;;;;;;4982478;28;20051;-64
2022/01/21 13:39:26;;;;;;;15.95;2.40;;;7.70;97.70;;;;;;4981783;28;20058;-63
2022/01/21 13:41:59;;;;;;;19.63;2.53;;;7.70;97.60;;;;;;4981244;28;20058;-63
2022/01/21 13:44:45;;;;;;;13.87;2.50;;;7.70;97.60;;;;;;4981855;28;20494;-63
2022/01/21 13:47:27;;;;;;;16.92;2.58;;;7.70;97.60;;;;;;4982224;28;22226;-63
2022/01/21 13:49:55;;;;;;;15.32;2.17;;;7.70;97.70;;;;;;4982024;28;20054;-63
2022/01/21 13:52:34;;;;;;;19.15;2.33;;;7.70;97.60;;;;;;4981616;28;20058;-63